Hillingdon, United Kingdom
Current Conditions -  °F | °C
As of 2:50 AM on Tuesday 21 Oct 2014 (Local Time) from EGWU Reporting Station
Broken Clouds Broken Clouds  
Wind Chill: 57°   Ceiling: 12000
Heat Index: 57°   Visibility: 6mi
Dew Point: 50°   Wind: 14mph
Humidity: 77%   Direction: 230°SW
Pressure: 29.74"   Gusts: NA
Location:  51.53°N, 0.45°W
Report Text: EGWU 210150Z AUTO 23012KT 9999 // FEW027/// SCT042/// BKN120/// 14/10 Q1007
Loading
Personal Weather Stations






























Interactive Weather Map
Tropical Storm Tracking
New forecast layout! Learn more

10-Day Weather Forecast

Advertisements
Track Severe Weather on mobile